Time;durP1;ratioP1;P1;durP2;ratioP2;P2;SDS_P1;SDS_P2;PMS_P1;PMS_P2;Temp;Humidity;BMP_temperature;BMP_pressure;BME280_temperature;BME280_humidity;BME280_pressure;Samples;Min_cycle;Max_cycle;Signal;HPM_P1;HPM_P2
2022/02/26 00:01:32;;;;;;;46.25;24.88;;;;;;;-1.25;88.12;93262.38;4953912;29;20055;-85
2022/02/26 00:03:58;;;;;;;47.08;25.45;;;;;;;-1.28;87.49;93252.56;4953598;29;20500;-85
2022/02/26 00:06:27;;;;;;;42.22;23.48;;;;;;;-1.45;87.09;93241.47;4953439;29;20070;-85
2022/02/26 00:08:54;;;;;;;34.78;20.02;;;;;;;-1.53;87.18;93247.19;4953338;29;20055;-85
2022/02/26 00:11:21;;;;;;;34.22;17.73;;;;;;;-1.56;88.25;93247.44;4953716;28;20102;-84
2022/02/26 00:13:48;;;;;;;28.48;16.67;;;;;;;-1.57;87.39;93255.94;4953704;29;20051;-84
2022/02/26 00:16:14;;;;;;;31.85;17.05;;;;;;;-1.57;87.97;93254.19;4953398;28;20070;-84
2022/02/26 00:18:41;;;;;;;33.20;16.90;;;;;;;-1.55;88.42;93254.06;4953266;29;20059;-84
2022/02/26 00:21:09;;;;;;;28.02;15.70;;;;;;;-1.48;88.59;93260.16;4953353;29;20464;-84
2022/02/26 00:23:37;;;;;;;43.90;20.30;;;;;;;-1.41;88.52;93266.25;4953219;28;20055;-84
2022/02/26 00:26:04;;;;;;;195.70;74.95;;;;;;;-1.37;87.85;93265.06;4953339;28;20189;-84
2022/02/26 00:28:31;;;;;;;27.70;14.32;;;;;;;-1.39;87.34;93251.78;4953368;29;20102;-85
2022/02/26 00:30:58;;;;;;;22.25;11.13;;;;;;;-1.29;86.79;93263.59;4953441;29;20058;-85
2022/02/26 00:33:24;;;;;;;19.25;10.20;;;;;;;-1.30;87.11;93262.00;4953292;29;20051;-85
2022/02/26 00:35:52;;;;;;;21.90;10.95;;;;;;;-1.30;87.66;93265.28;4953222;29;20058;-85
2022/02/26 00:38:19;;;;;;;21.60;11.18;;;;;;;-1.28;86.71;93260.13;4952967;28;20069;-85
2022/02/26 00:40:48;;;;;;;23.35;11.35;;;;;;;-1.27;87.19;93262.50;4953101;29;20051;-85
2022/02/26 00:43:14;;;;;;;26.83;12.55;;;;;;;-1.26;88.07;93263.28;4953152;28;20059;-84
2022/02/26 00:45:41;;;;;;;23.40;12.43;;;;;;;-1.26;88.48;93259.06;4952905;29;20054;-85
2022/02/26 00:48:08;;;;;;;23.50;11.80;;;;;;;-1.44;88.30;93231.22;4953032;28;20067;-85
2022/02/26 00:50:34;;;;;;;23.98;11.63;;;;;;;-1.30;88.73;93252.69;4952922;29;20056;-85
2022/02/26 00:53:01;;;;;;;22.08;10.68;;;;;;;-1.46;89.12;93227.25;4953021;29;20464;-85
2022/02/26 00:55:28;;;;;;;22.80;12.15;;;;;;;-1.34;89.29;93243.84;4953201;29;20051;-84
2022/02/26 00:57:57;;;;;;;21.48;10.07;;;;;;;-1.86;89.92;93171.13;4953005;29;20059;-85
2022/02/26 01:00:24;;;;;;;18.38;9.23;;;;;;;-1.35;88.80;93243.03;4952835;29;20050;-85
2022/02/26 01:02:51;;;;;;;46.67;22.98;;;;;;;-1.31;88.83;93252.84;4952807;29;20216;-85
2022/02/26 01:05:17;;;;;;;29.77;16.10;;;;;;;-1.35;87.83;93258.16;4952560;29;20066;-85
2022/02/26 01:07:46;;;;;;;22.42;12.10;;;;;;;-1.38;88.43;93257.63;4952701;28;20066;-85
2022/02/26 01:10:14;;;;;;;21.48;12.25;;;;;;;-1.36;88.37;93254.03;4952292;28;20094;-84
2022/02/26 01:12:40;;;;;;;24.30;13.65;;;;;;;-1.28;87.58;93250.84;4952398;29;20059;-85
2022/02/26 01:15:09;;;;;;;21.63;10.07;;;;;;;-1.40;87.71;93226.72;4952335;29;20058;-85
2022/02/26 01:17:36;;;;;;;16.88;8.48;;;;;;;-1.22;86.89;93255.34;4952280;28;20110;-85
2022/02/26 01:20:04;;;;;;;14.13;7.65;;;;;;;-1.25;86.80;93249.78;4952843;29;20055;-85
2022/02/26 01:22:31;;;;;;;16.80;8.23;;;;;;;-1.27;86.77;93244.88;4952425;29;20059;-85
2022/02/26 01:24:58;;;;;;;19.00;8.73;;;;;;;-1.40;87.07;93231.75;4952544;29;20047;-85
2022/02/26 01:27:25;;;;;;;13.05;7.18;;;;;;;-1.30;87.71;93245.13;4953127;28;20047;-85
2022/02/26 01:29:52;;;;;;;39.78;20.35;;;;;;;-1.30;88.59;93245.13;4952586;29;20505;-84
2022/02/26 01:32:20;;;;;;;19.02;9.18;;;;;;;-1.41;88.50;93230.97;4941069;29;20463;-85
2022/02/26 01:34:47;;;;;;;16.23;8.15;;;;;;;-1.30;88.67;93244.34;4952819;29;20114;-85
2022/02/26 01:37:13;;;;;;;16.67;10.27;;;;;;;-1.33;89.45;93237.06;4952662;29;20059;-85
2022/02/26 01:39:41;;;;;;;20.40;11.27;;;;;;;-1.29;89.52;93243.41;4952447;28;20098;-85
2022/02/26 01:42:07;;;;;;;19.38;11.00;;;;;;;-1.25;89.01;93245.53;4952541;29;20051;-85
2022/02/26 01:44:36;;;;;;;41.80;21.27;;;;;;;-1.29;89.11;93251.75;4952442;29;20489;-84
2022/02/26 01:47:03;;;;;;;22.23;12.05;;;;;;;-1.29;89.56;93249.25;4952503;29;20106;-85
2022/02/26 01:49:32;;;;;;;37.75;19.80;;;;;;;-1.45;89.43;93228.88;4952883;28;20047;-85
2022/02/26 01:51:58;;;;;;;34.88;17.55;;;;;;;-1.43;89.09;93235.34;4956400;28;20054;-85
2022/02/26 01:54:25;;;;;;;33.15;16.17;;;;;;;-1.45;89.81;93242.25;4955880;28;20496;-85
2022/02/26 01:56:52;;;;;;;27.02;15.07;;;;;;;-1.42;89.80;93248.75;4956029;29;20102;-85
2022/02/26 01:59:20;;;;;;;29.95;14.90;;;;;;;-1.44;89.56;93241.31;4955750;28;20051;-86
2022/02/26 02:01:47;;;;;;;43.70;20.00;;;;;;;-1.42;89.97;93246.22;4956007;29;20147;-86
2022/02/26 02:04:15;;;;;;;34.40;15.90;;;;;;;-1.42;91.00;93259.63;4955806;28;20102;-85
2022/02/26 02:06:44;;;;;;;43.97;20.88;;;;;;;-1.50;90.75;93249.41;4955685;29;20054;-85
2022/02/26 02:09:11;;;;;;;31.70;15.90;;;;;;;-1.50;90.88;93242.66;4955801;29;20054;-86
2022/02/26 02:11:38;;;;;;;26.60;14.15;;;;;;;-1.51;91.04;93256.19;4955820;29;20055;-85
2022/02/26 02:14:06;;;;;;;28.20;14.85;;;;;;;-1.54;90.95;93255.66;4955704;29;20047;-85
2022/02/26 02:16:35;;;;;;;22.85;12.85;;;;;;;-1.55;90.84;93259.91;4955765;28;20062;-85
2022/02/26 02:19:05;;;;;;;21.77;12.48;;;;;;;-1.69;90.45;93235.13;4955692;28;20055;-85
2022/02/26 02:21:32;;;;;;;21.00;11.90;;;;;;;-1.63;90.28;93245.47;4955864;28;20059;-85
2022/02/26 02:24:00;;;;;;;21.92;11.50;;;;;;;-1.68;90.49;93247.59;4955610;29;20055;-85
2022/02/26 02:26:28;;;;;;;18.90;9.77;;;;;;;-1.62;90.09;93258.84;4955409;28;20484;-85
2022/02/26 02:28:55;;;;;;;17.20;10.30;;;;;;;-1.70;90.35;93254.50;4955265;29;20488;-85
2022/02/26 02:31:22;;;;;;;22.05;10.90;;;;;;;-1.65;90.70;93266.66;4955764;29;20157;-85
2022/02/26 02:33:50;;;;;;;37.58;19.55;;;;;;;-1.73;91.53;93269.84;4955472;29;20102;-86
2022/02/26 02:36:17;;;;;;;34.13;18.80;;;;;;;-1.78;92.35;93275.28;4955236;29;20043;-86
2022/02/26 02:38:44;;;;;;;41.33;20.33;;;;;;;-1.91;92.53;93257.94;4954944;29;20058;-85
2022/02/26 02:41:12;;;;;;;36.30;19.33;;;;;;;-1.77;92.58;93283.63;4955010;28;20106;-87
2022/02/26 02:43:40;;;;;;;47.45;24.25;;;;;;;-1.81;92.35;93285.63;4955430;28;20134;-87
2022/02/26 02:46:07;;;;;;;34.30;18.15;;;;;;;-1.85;92.68;93283.50;4955536;28;20480;-87
2022/02/26 02:48:34;;;;;;;33.85;19.30;;;;;;;-1.84;93.69;93273.31;4955126;29;20047;-86
2022/02/26 02:51:01;;;;;;;30.08;16.88;;;;;;;-1.86;93.46;93269.34;4955262;29;20058;-86
2022/02/26 02:53:29;;;;;;;37.83;19.35;;;;;;;-1.77;93.05;93276.88;4954990;29;20502;-87
2022/02/26 02:55:55;;;;;;;50.60;24.10;;;;;;;-1.72;93.50;93283.25;4955034;29;20043;-86
2022/02/26 02:58:26;;;;;;;43.20;21.05;;;;;;;-1.83;93.42;93284.16;4954821;29;20059;-86
2022/02/26 03:00:53;;;;;;;38.55;18.85;;;;;;;-1.78;92.70;93282.84;4954072;28;20040;-87
2022/02/26 03:03:20;;;;;;;26.20;12.23;;;;;;;-1.83;93.14;93292.53;4954859;29;20412;-87
2022/02/26 03:05:47;;;;;;;24.75;13.45;;;;;;;-1.83;92.29;93294.22;4954638;29;20055;-87
2022/02/26 03:08:15;;;;;;;18.35;10.20;;;;;;;-1.88;92.66;93304.72;4953900;29;20098;-86
2022/02/26 03:10:42;;;;;;;21.50;10.75;;;;;;;-1.93;92.94;93307.63;4954911;29;20051;-84
2022/02/26 03:13:09;;;;;;;22.98;10.40;;;;;;;-1.97;93.00;93311.31;4954585;29;20066;-85
2022/02/26 03:15:37;;;;;;;28.73;16.15;;;;;;;-2.18;94.39;93301.38;4954534;29;20048;-85
2022/02/26 03:18:04;;;;;;;29.55;15.75;;;;;;;-2.13;95.37;93306.00;4954634;28;20134;-85
2022/02/26 03:20:31;;;;;;;27.77;14.73;;;;;;;-2.09;95.33;93307.34;4954564;29;20161;-86
2022/02/26 03:22:58;;;;;;;26.40;15.90;;;;;;;-2.02;95.33;93310.91;4954462;29;20455;-85
2022/02/26 03:25:25;;;;;;;27.52;14.18;;;;;;;-2.03;94.98;93311.84;4954646;29;20058;-86
2022/02/26 03:27:52;;;;;;;19.90;11.55;;;;;;;-2.06;94.10;93312.09;4954477;28;20055;-85
2022/02/26 03:30:19;;;;;;;17.15;8.65;;;;;;;-2.07;93.77;93320.56;4954234;28;20393;-85
2022/02/26 03:32:47;;;;;;;13.55;8.25;;;;;;;-2.18;93.32;93311.44;4954374;29;20047;-85
2022/02/26 03:35:14;;;;;;;13.70;7.95;;;;;;;-2.12;93.36;93320.16;4954201;28;20070;-85
2022/02/26 03:37:41;;;;;;;15.10;7.97;;;;;;;-2.17;94.10;93323.09;4954420;28;20047;-85
2022/02/26 03:40:09;;;;;;;14.27;8.13;;;;;;;-2.18;94.61;93324.00;4953786;28;20055;-85
2022/02/26 03:42:37;;;;;;;17.13;8.40;;;;;;;-2.36;94.09;93298.66;4954075;29;20482;-85
2022/02/26 03:45:05;;;;;;;29.55;13.60;;;;;;;-2.28;95.00;93322.25;4953729;28;20070;-85
2022/02/26 03:47:31;;;;;;;16.45;8.63;;;;;;;-2.19;95.87;93324.91;4953863;29;20397;-85
2022/02/26 03:50:00;;;;;;;17.73;9.35;;;;;;;-2.20;95.80;93323.31;4953885;29;20115;-85
2022/02/26 03:52:27;;;;;;;15.63;8.57;;;;;;;-2.22;95.12;93325.19;4953862;28;20484;-85
2022/02/26 03:54:55;;;;;;;21.08;10.63;;;;;;;-2.29;94.75;93315.63;4953646;29;20492;-85
2022/02/26 03:57:22;;;;;;;25.40;11.50;;;;;;;-2.42;95.64;93295.75;4953763;29;20500;-85
2022/02/26 03:59:49;;;;;;;23.80;14.02;;;;;;;-2.24;95.94;93324.50;4953549;28;20492;-85
2022/02/26 04:02:16;;;;;;;22.02;12.20;;;;;;;-2.22;95.27;93322.66;4953392;28;20073;-85
2022/02/26 04:04:43;;;;;;;22.00;11.93;;;;;;;-2.20;95.50;93325.84;4953402;29;20508;-85
2022/02/26 04:07:11;;;;;;;21.92;12.70;;;;;;;-2.18;94.95;93318.97;4953600;29;20059;-85
2022/02/26 04:09:38;;;;;;;23.77;11.55;;;;;;;-2.23;95.03;93318.56;4953459;29;20047;-85
2022/02/26 04:12:05;;;;;;;25.33;13.35;;;;;;;-2.26;95.01;93327.16;4953261;28;20107;-85
2022/02/26 04:14:32;;;;;;;23.60;12.10;;;;;;;-2.24;94.95;93327.81;4953384;28;20055;-85
2022/02/26 04:16:59;;;;;;;23.20;12.07;;;;;;;-2.25;95.35;93331.28;4953308;29;20059;-86
2022/02/26 04:19:26;;;;;;;24.20;13.35;;;;;;;-2.38;94.56;93316.41;4953132;29;20063;-86
2022/02/26 04:21:52;;;;;;;26.95;13.07;;;;;;;-2.38;94.94;93323.94;4953345;29;20047;-86
2022/02/26 04:24:21;;;;;;;25.42;12.48;;;;;;;-2.45;96.06;93330.41;4953600;28;20058;-86
2022/02/26 04:26:48;;;;;;;23.17;12.55;;;;;;;-2.43;96.26;93339.44;4953186;29;20547;-86
2022/02/26 04:29:15;;;;;;;23.42;12.55;;;;;;;-2.44;96.65;93332.00;4953142;29;20051;-86
2022/02/26 04:31:42;;;;;;;22.33;13.52;;;;;;;-2.64;97.02;93299.22;4953039;29;20047;-86
2022/02/26 04:34:09;;;;;;;24.85;12.88;;;;;;;-2.36;96.74;93324.59;4953252;29;20055;-86
2022/02/26 04:36:36;;;;;;;26.08;13.90;;;;;;;-2.33;96.79;93316.00;4953097;28;20463;-86
2022/02/26 04:39:04;;;;;;;27.50;13.73;;;;;;;-2.52;96.78;93297.44;4953236;29;20447;-86
2022/02/26 04:41:32;;;;;;;25.60;13.43;;;;;;;-2.26;97.46;93328.88;4952998;29;20062;-85
2022/02/26 04:43:58;;;;;;;23.88;13.63;;;;;;;-2.26;97.17;93343.97;4952750;28;20071;-86
2022/02/26 04:46:25;;;;;;;31.23;13.98;;;;;;;-2.36;96.56;93338.94;4953021;28;20054;-86
2022/02/26 04:48:52;;;;;;;26.45;13.55;;;;;;;-2.36;96.34;93334.66;4953118;29;20051;-86
2022/02/26 04:51:19;;;;;;;31.02;16.10;;;;;;;-2.48;96.84;93325.63;4953600;28;20051;-86
2022/02/26 04:53:46;;;;;;;32.83;16.33;;;;;;;-2.58;98.08;93340.69;4953604;28;20487;-86
2022/02/26 04:56:13;;;;;;;31.00;16.30;;;;;;;-2.63;99.65;93346.13;4952486;29;20058;-86
2022/02/26 04:58:41;;;;;;;31.23;14.75;;;;;;;-2.55;99.76;93351.28;4952606;28;20066;-85
2022/02/26 05:01:08;;;;;;;27.73;15.10;;;;;;;-2.70;99.36;93324.88;4962811;28;20073;-86
2022/02/26 05:03:35;;;;;;;34.42;17.20;;;;;;;-2.76;100.00;93332.94;4960053;28;20074;-86
2022/02/26 05:06:02;;;;;;;53.75;27.08;;;;;;;-2.58;99.85;93348.25;4956858;28;20047;-86
2022/02/26 05:08:29;;;;;;;55.28;27.67;;;;;;;-2.59;100.00;93347.44;4971609;28;20524;-86
2022/02/26 05:10:56;;;;;;;49.58;25.23;;;;;;;-2.52;100.00;93359.50;4952326;28;20129;-86
2022/02/26 05:13:25;;;;;;;45.50;22.60;;;;;;;-2.46;100.00;93361.53;4952569;29;20098;-87
2022/02/26 05:15:53;;;;;;;41.05;21.90;;;;;;;-2.36;99.58;93362.34;4955265;28;20054;-87
2022/02/26 05:18:20;;;;;;;36.85;19.98;;;;;;;-2.29;99.45;93368.47;4954926;28;20416;-87
2022/02/26 05:20:47;;;;;;;36.90;18.95;;;;;;;-2.21;99.10;93377.09;4957897;28;20062;-86
2022/02/26 05:23:16;;;;;;;36.28;20.50;;;;;;;-2.18;99.19;93374.34;4971491;28;20082;-87
2022/02/26 05:25:43;;;;;;;37.05;19.63;;;;;;;-2.13;99.62;93384.03;4970727;28;20047;-87
2022/02/26 05:28:10;;;;;;;40.45;21.27;;;;;;;-2.06;98.96;93395.16;4971765;28;20542;-87
2022/02/26 05:30:36;;;;;;;41.25;22.60;;;;;;;-1.98;99.53;93394.53;4971720;28;20451;-87
2022/02/26 05:33:05;;;;;;;51.60;26.15;;;;;;;-1.92;98.84;93394.00;4971807;28;20110;-86
2022/02/26 05:35:31;;;;;;;69.90;34.80;;;;;;;-2.11;99.78;93365.34;4971636;28;20054;-86
2022/02/26 05:37:59;;;;;;;59.78;30.60;;;;;;;-2.05;100.00;93376.63;4971280;28;20106;-87
2022/02/26 05:40:26;;;;;;;54.40;30.42;;;;;;;-2.16;100.00;93375.78;4971509;28;20133;-86
2022/02/26 05:42:53;;;;;;;52.58;28.70;;;;;;;-1.98;100.00;93400.38;4971628;28;20047;-86
2022/02/26 05:45:20;;;;;;;57.20;30.25;;;;;;;-1.98;100.00;93400.38;4971890;28;20047;-86
2022/02/26 05:47:47;;;;;;;57.60;28.95;;;;;;;-1.95;100.00;93401.84;4971575;28;20053;-86
2022/02/26 05:50:15;;;;;;;51.60;28.58;;;;;;;-1.78;100.00;93405.44;4971498;28;20047;-87
2022/02/26 05:52:43;;;;;;;60.65;32.65;;;;;;;-1.75;100.00;93405.97;4971505;28;20101;-87
2022/02/26 05:55:10;;;;;;;70.22;35.17;;;;;;;-1.59;100.00;93419.00;4972000;28;20047;-87
2022/02/26 05:57:37;;;;;;;55.42;30.15;;;;;;;-1.45;100.00;93425.41;4971716;28;20078;-87
2022/02/26 06:00:06;;;;;;;66.22;36.20;;;;;;;-1.38;100.00;93423.94;4968761;28;20146;-88
2022/02/26 06:02:33;;;;;;;83.07;45.60;;;;;;;-1.43;99.99;93403.38;4972178;28;20086;-88
2022/02/26 06:05:00;;;;;;;77.75;40.13;;;;;;;-1.26;99.67;93422.06;4972598;28;20487;-89
2022/02/26 06:07:29;;;;;;;67.25;38.17;;;;;;;-1.37;100.00;93408.69;4971494;28;20054;-89
2022/02/26 06:09:56;;;;;;;66.60;37.90;;;;;;;-1.24;100.00;93423.53;4971207;28;20047;-89
2022/02/26 06:12:22;;;;;;;106.93;51.35;;;;;;;-1.23;100.00;93417.59;4972280;28;20051;-89
2022/02/26 06:14:49;;;;;;;68.93;36.28;;;;;;;-1.20;100.00;93421.56;4971479;28;20039;-90
2022/02/26 06:17:16;;;;;;;110.70;50.42;;;;;;;-1.11;100.00;93425.03;4971342;28;20053;-89
2022/02/26 06:19:43;;;;;;;93.03;45.05;;;;;;;-0.93;100.00;93426.88;4971136;28;20081;-87
2022/02/26 06:22:10;;;;;;;84.50;40.67;;;;;;;-0.85;100.00;93419.41;4971347;28;20059;-88
2022/02/26 06:24:38;;;;;;;72.93;36.35;;;;;;;-0.79;100.00;93408.00;4971218;28;20051;-88
2022/02/26 06:27:05;;;;;;;69.20;30.23;;;;;;;-0.53;100.00;93415.78;4971557;28;20093;-88
2022/02/26 06:29:32;;;;;;;66.05;30.92;;;;;;;-0.57;100.00;93405.16;4971438;28;20047;-87
2022/02/26 06:31:59;;;;;;;74.07;31.40;;;;;;;-0.37;100.00;93424.50;4971357;28;20400;-89
2022/02/26 06:34:27;;;;;;;62.28;31.70;;;;;;;-0.21;100.00;93414.63;4971139;28;20463;-89
2022/02/26 06:36:54;;;;;;;64.38;31.85;;;;;;;-0.03;100.00;93432.38;4974221;28;20061;-89
2022/02/26 06:39:22;;;;;;;76.60;31.25;;;;;;;0.16;100.00;93433.22;4974510;28;20510;-88
2022/02/26 06:41:55;;;;;;;69.93;30.95;;;;;;;0.26;100.00;93430.63;4974599;28;20054;-86
2022/02/26 06:44:23;;;;;;;67.15;30.13;;;;;;;0.19;100.00;93412.72;4972875;28;20132;-88
2022/02/26 06:46:54;;;;;;;75.85;29.17;;;;;;;0.26;100.00;93401.13;4974487;28;20046;-88
2022/02/26 06:49:20;;;;;;;62.55;27.67;;;;;;;0.60;100.00;93426.75;4974479;28;20067;-88
2022/02/26 06:51:47;;;;;;;73.00;30.45;;;;;;;0.76;100.00;93426.09;4974324;28;20058;-87
2022/02/26 06:54:14;;;;;;;64.53;29.38;;;;;;;0.98;100.00;93429.13;4974593;28;20097;-88
2022/02/26 06:56:44;;;;;;;71.18;30.48;;;;;;;1.13;100.00;93426.88;4974308;28;20054;-87
2022/02/26 06:59:12;;;;;;;73.43;30.17;;;;;;;1.20;100.00;93408.44;4973417;28;20046;-89
2022/02/26 07:01:45;;;;;;;65.70;29.27;;;;;;;1.33;100.00;93420.72;4974114;28;20118;-88
2022/02/26 07:04:12;;;;;;;66.43;29.35;;;;;;;1.29;100.00;93395.84;4974168;28;20057;-86
2022/02/26 07:06:44;;;;;;;77.55;29.88;;;;;;;1.45;100.00;93430.59;4956714;28;20415;-87
2022/02/26 07:09:14;;;;;;;74.88;27.95;;;;;;;1.44;100.00;93418.88;4974029;28;20047;-86
2022/02/26 07:11:43;;;;;;;63.08;25.52;;;;;;;1.24;100.00;93382.84;4974102;28;20085;-86
2022/02/26 07:14:20;;;;;;;;;;;;;;;;;;;;;
2022/02/26 07:16:55;;;;;;;71.93;28.40;;;;;;;1.70;100.00;93426.47;4971209;28;20384;-86
2022/02/26 07:19:22;;;;;;;66.93;28.80;;;;;;;1.74;100.00;93432.03;4973721;28;20054;-87
2022/02/26 07:21:50;;;;;;;45.67;23.70;;;;;;;1.80;100.00;93428.91;4973776;28;20396;-85
2022/02/26 07:24:17;;;;;;;53.42;25.88;;;;;;;1.97;100.00;93424.72;4972937;28;20510;-85
2022/02/26 07:26:45;;;;;;;53.95;26.58;;;;;;;2.21;100.00;93423.22;4975770;28;20061;-84
2022/02/26 07:29:14;;;;;;;65.38;30.88;;;;;;;2.53;100.00;93426.81;4973714;28;20061;-85
2022/02/26 07:31:42;;;;;;;53.53;24.92;;;;;;;2.85;100.00;93424.50;4969740;28;20054;-84
2022/02/26 07:34:10;;;;;;;59.55;27.75;;;;;;;3.10;98.79;93428.81;4963001;28;20054;-82
2022/02/26 07:36:37;;;;;;;43.30;21.92;;;;;;;3.24;98.99;93417.22;4966208;28;20472;-83
2022/02/26 07:39:05;;;;;;;51.55;25.45;;;;;;;3.47;97.25;93422.44;4964936;28;20098;-85
2022/02/26 07:41:32;;;;;;;47.67;22.88;;;;;;;3.68;94.96;93419.41;4965462;28;20097;-85
2022/02/26 07:43:59;;;;;;;46.10;20.27;;;;;;;3.79;92.84;93423.34;4961243;28;20047;-85
2022/02/26 07:46:30;;;;;;;69.13;29.85;;;;;;;3.96;93.15;93418.22;4965297;28;20452;-85
2022/02/26 07:48:57;;;;;;;44.15;19.65;;;;;;;4.11;90.68;93414.03;4967604;28;20418;-84
2022/02/26 07:51:25;;;;;;;50.72;19.13;;;;;;;4.22;89.82;93417.94;4973174;28;20055;-83
2022/02/26 07:53:52;;;;;;;40.35;16.50;;;;;;;4.43;88.84;93416.59;4973266;28;20039;-82
2022/02/26 07:56:19;;;;;;;27.17;14.57;;;;;;;4.25;85.41;93419.38;4973353;28;20053;-83
2022/02/26 07:58:46;;;;;;;25.13;14.68;;;;;;;4.22;86.75;93417.19;4973321;28;20051;-84
2022/02/26 08:01:13;;;;;;;28.65;14.65;;;;;;;4.12;84.35;93395.28;4973060;28;20059;-85
2022/02/26 08:03:40;;;;;;;28.98;14.95;;;;;;;4.10;85.62;93386.22;4972948;28;20051;-86
2022/02/26 08:06:06;;;;;;;25.23;14.48;;;;;;;4.51;84.41;93410.69;4972929;28;20057;-86
2022/02/26 08:08:35;;;;;;;26.77;15.23;;;;;;;4.60;84.90;93371.53;4973313;28;20113;-85
2022/02/26 08:11:01;;;;;;;31.02;15.82;;;;;;;4.67;80.42;93382.59;4973060;28;20055;-85
2022/02/26 08:13:30;;;;;;;45.97;25.65;;;;;;;5.10;82.58;93401.75;4972885;28;20513;-85
2022/02/26 08:15:56;;;;;;;111.22;60.25;;;;;;;5.35;78.21;93392.13;4973012;28;20055;-86
2022/02/26 08:18:23;;;;;;;32.33;18.42;;;;;;;5.54;80.38;93390.06;4972772;28;20447;-85
2022/02/26 08:20:50;;;;;;;28.52;15.63;;;;;;;5.81;80.07;93387.88;4972646;28;20102;-85
2022/02/26 08:23:17;;;;;;;32.25;16.52;;;;;;;6.20;78.75;93383.47;4972928;28;20493;-85
2022/02/26 08:25:47;;;;;;;25.38;14.80;;;;;;;6.51;75.82;93379.91;4972834;28;20082;-85
2022/02/26 08:28:14;;;;;;;32.47;17.15;;;;;;;6.85;75.24;93369.25;4972831;28;20054;-83
2022/02/26 08:30:42;;;;;;;35.30;19.08;;;;;;;6.87;68.62;93377.50;4972666;28;20047;-84
2022/02/26 08:33:09;;;;;;;26.42;13.57;;;;;;;6.90;70.04;93370.28;4972457;28;20158;-83
2022/02/26 08:35:39;;;;;;;23.75;13.23;;;;;;;7.00;71.09;93349.56;4973660;28;20050;-86
2022/02/26 08:38:06;;;;;;;50.00;25.92;;;;;;;7.41;67.28;93368.50;4972600;28;20113;-84
2022/02/26 08:40:35;;;;;;;30.00;17.75;;;;;;;7.57;64.83;93366.66;4972352;28;20050;-84
2022/02/26 08:43:03;;;;;;;21.23;11.82;;;;;;;7.78;60.45;93370.13;4972418;28;20097;-84
2022/02/26 08:45:30;;;;;;;20.92;12.57;;;;;;;7.81;59.43;93369.75;4972235;28;20578;-84
2022/02/26 08:47:57;;;;;;;18.88;11.13;;;;;;;7.66;60.13;93373.22;4972397;28;20046;-84
2022/02/26 08:50:24;;;;;;;21.88;12.27;;;;;;;7.73;62.73;93365.59;4972520;28;20051;-84
2022/02/26 08:52:55;;;;;;;19.88;10.70;;;;;;;7.89;60.00;93364.50;4972261;28;20106;-84
2022/02/26 08:55:21;;;;;;;21.75;11.90;;;;;;;7.99;61.20;93336.81;4972282;28;20049;-84
2022/02/26 08:57:48;;;;;;;19.15;12.55;;;;;;;7.99;59.54;93357.25;4972214;28;20055;-84
2022/02/26 09:00:18;;;;;;;21.33;11.05;;;;;;;7.82;59.10;93356.00;4971111;28;20050;-84
2022/02/26 09:02:45;;;;;;;22.23;11.07;;;;;;;7.01;58.32;93342.66;4972440;28;20058;-83
2022/02/26 09:05:12;;;;;;;23.35;12.60;;;;;;;6.75;59.91;93356.78;4972426;28;20058;-85
2022/02/26 09:07:39;;;;;;;29.63;16.23;;;;;;;6.58;61.25;93317.94;4972195;28;20058;-87
2022/02/26 09:10:07;;;;;;;16.45;10.68;;;;;;;6.27;60.34;93352.97;4972184;28;20055;-84
2022/02/26 09:12:34;;;;;;;14.30;9.93;;;;;;;6.41;62.06;93359.00;4972355;28;20435;-83
2022/02/26 09:15:01;;;;;;;21.25;12.30;;;;;;;6.55;62.20;93339.50;4971710;28;20479;-84
2022/02/26 09:17:29;;;;;;;22.73;14.10;;;;;;;6.51;61.24;93333.19;4971916;28;20056;-84
2022/02/26 09:19:56;;;;;;;16.33;10.00;;;;;;;6.42;60.47;93358.03;4972201;28;20057;-83
2022/02/26 09:22:23;;;;;;;18.45;12.13;;;;;;;6.40;59.90;93358.19;4971964;28;20411;-90
2022/02/26 09:24:56;;;;;;;20.67;10.82;;;;;;;6.43;59.03;93358.81;4972468;28;20137;-85
2022/02/26 09:27:26;;;;;;;14.38;9.40;;;;;;;6.29;61.47;93356.09;4972081;28;20051;-88
2022/02/26 09:29:53;;;;;;;16.60;9.45;;;;;;;6.66;63.20;93351.00;4971931;28;20047;-85
2022/02/26 09:32:20;;;;;;;15.82;9.35;;;;;;;6.52;59.97;93325.34;4972224;28;20051;-83
2022/02/26 09:34:48;;;;;;;17.83;9.63;;;;;;;6.75;59.94;93354.25;4972427;28;20051;-85
2022/02/26 09:37:17;;;;;;;13.80;9.30;;;;;;;6.72;58.86;93344.38;4972075;28;20043;-85
2022/02/26 09:39:44;;;;;;;17.45;10.20;;;;;;;6.65;61.12;93350.22;4971803;28;20491;-86
2022/02/26 09:42:21;;;;;;;16.98;9.50;;;;;;;6.76;58.29;93345.59;4972830;28;20043;-89
2022/02/26 09:44:48;;;;;;;14.77;9.45;;;;;;;6.62;60.03;93321.72;4972059;28;20125;-87
2022/02/26 09:47:17;;;;;;;18.75;10.88;;;;;;;6.90;59.78;93356.72;4972499;28;20142;-86
2022/02/26 09:49:44;;;;;;;20.30;11.23;;;;;;;6.93;58.62;93348.69;4972662;28;20061;-86
2022/02/26 09:52:13;;;;;;;22.38;10.95;;;;;;;6.81;58.78;93345.84;4972751;28;20051;-89
2022/02/26 09:54:40;;;;;;;15.48;10.60;;;;;;;6.74;59.14;93304.13;4972765;28;20141;-85
2022/02/26 09:57:07;;;;;;;17.48;10.82;;;;;;;7.20;58.06;93338.69;4972087;28;20070;-86
2022/02/26 09:59:34;;;;;;;17.08;11.00;;;;;;;7.39;57.96;93336.44;4971699;28;20057;-85
2022/02/26 10:02:13;;;;;;;19.13;10.50;;;;;;;7.29;56.84;93342.69;4971964;28;20434;-83
2022/02/26 10:04:57;;;;;;;14.10;9.35;;;;;;;7.12;56.28;93326.84;4971435;28;20411;-88
2022/02/26 10:07:26;;;;;;;14.32;9.52;;;;;;;7.28;56.59;93341.13;4972469;28;20090;-90
2022/02/26 10:22:31;;;;;;;20.85;11.82;;;;;;;6.87;57.32;93181.69;4930520;28;20048;-84
2022/02/26 10:25:09;;;;;;;18.50;10.73;;;;;;;8.12;55.97;93325.03;4955635;28;20734;-84
2022/02/26 10:27:58;;;;;;;;;;;;;;;;;;;;;
2022/02/26 10:30:59;;;;;;;19.27;13.13;;;;;;;7.19;52.97;93187.16;4949923;28;20043;-85
2022/02/26 10:33:57;;;;;;;30.00;20.25;;;;;;;7.51;55.37;93291.53;4957182;28;20134;-84
2022/02/26 10:36:58;;;;;;;31.67;18.45;;;;;;;7.56;54.38;93319.88;4955204;28;20190;-84
2022/02/26 10:39:49;;;;;;;40.35;18.88;;;;;;;6.04;55.31;93119.28;4957023;28;20055;-86
2022/02/26 10:45:34;;;;;;;59.42;28.95;;;;;;;6.97;54.23;93165.22;4954362;28;20105;-83
2022/02/26 10:48:10;;;;;;;;;;;;;;;;;;;;;
2022/02/26 10:51:04;;;;;;;;;;;;;;;;;;;;;
2022/02/26 10:53:44;;;;;;;18.25;13.40;;;;;;;8.08;51.69;93304.16;4974473;28;20046;-82
2022/02/26 10:56:16;;;;;;;26.08;15.60;;;;;;;8.17;52.73;93268.97;4974413;28;20510;-84
2022/02/26 11:02:06;;;;;;;16.13;12.00;;;;;;;8.00;52.88;93237.81;4965573;28;20499;-90
2022/02/26 11:05:02;;;;;;;17.95;11.40;;;;;;;8.44;51.87;93281.81;4974293;28;20051;-83
2022/02/26 11:07:34;;;;;;;17.85;10.77;;;;;;;7.40;51.33;93144.59;4973891;28;20121;-86
2022/02/26 11:10:01;;;;;;;15.88;9.88;;;;;;;8.63;52.44;93290.53;4974168;28;20129;-84
2022/02/26 11:12:30;;;;;;;19.05;12.30;;;;;;;8.36;51.08;93272.56;4974783;28;20055;-91
2022/02/26 11:15:06;;;;;;;18.15;10.63;;;;;;;8.65;51.60;93268.09;4974098;28;20047;-85
2022/02/26 11:17:36;;;;;;;18.20;11.20;;;;;;;8.82;52.25;93276.19;4974073;28;20078;-86
2022/02/26 11:20:11;;;;;;;71.22;29.67;;;;;;;8.90;52.48;93271.84;4973780;28;20562;-88
2022/02/26 11:22:43;;;;;;;21.25;12.65;;;;;;;9.13;49.91;93271.44;4972611;28;20055;-85
2022/02/26 11:25:11;;;;;;;19.33;12.63;;;;;;;9.33;50.38;93268.84;4974020;28;20054;-86
2022/02/26 11:27:40;;;;;;;18.10;11.80;;;;;;;9.33;50.39;93263.72;4973990;28;20490;-85
2022/02/26 11:30:13;;;;;;;19.73;11.38;;;;;;;9.08;49.63;93266.13;4973908;28;20043;-90
2022/02/26 11:32:43;;;;;;;18.80;11.55;;;;;;;9.15;51.09;93268.66;4974323;28;20508;-85
2022/02/26 11:35:26;;;;;;;16.75;10.50;;;;;;;8.46;49.92;93245.78;4974536;28;20047;-85
2022/02/26 11:37:56;;;;;;;16.02;9.98;;;;;;;8.83;49.87;93271.84;4973536;28;20047;-84
2022/02/26 11:40:24;;;;;;;20.10;10.63;;;;;;;8.77;50.55;93262.38;4973572;28;20419;-86
2022/02/26 11:42:54;;;;;;;15.43;10.05;;;;;;;8.84;50.20;93260.59;4973388;28;20051;-85
2022/02/26 11:45:28;;;;;;;16.77;11.35;;;;;;;9.00;49.95;93261.19;4973562;28;20061;-87
2022/02/26 11:48:10;;;;;;;21.05;11.25;;;;;;;9.13;49.49;93262.94;4974136;28;20053;-86
2022/02/26 11:50:41;;;;;;;19.67;11.20;;;;;;;9.24;49.41;93252.09;4974512;28;20050;-87